createdAt,value
2023-03-08T00:00:13.576Z,0.85
2023-03-08T00:03:39.621Z,1.00
2023-03-08T00:06:51.572Z,1.00
2023-03-08T00:10:03.600Z,1.10
2023-03-08T00:13:15.574Z,0.75
2023-03-08T00:16:27.722Z,1.30
2023-03-08T00:19:41.637Z,0.90
2023-03-08T00:22:57.673Z,1.00
2023-03-08T00:25:57.605Z,0.90
2023-03-08T00:29:21.661Z,1.07
2023-03-08T00:32:21.711Z,0.90
2023-03-08T00:35:48.801Z,0.90
2023-03-08T00:39:00.695Z,1.17
2023-03-08T00:42:15.735Z,1.00
2023-03-08T00:45:27.676Z,1.03
2023-03-08T00:48:51.744Z,1.00
2023-03-08T00:52:17.750Z,0.95
2023-03-08T00:55:29.783Z,1.10
2023-03-08T00:58:53.703Z,1.00
2023-03-08T01:02:05.766Z,1.00
2023-03-08T01:05:05.796Z,0.93
2023-03-08T01:08:31.747Z,1.27
2023-03-08T01:11:46.822Z,1.00
2023-03-08T01:14:58.847Z,1.10
2023-03-08T01:17:58.781Z,1.00
2023-03-08T01:21:22.838Z,1.40
2023-03-08T01:24:36.845Z,1.10
2023-03-08T01:27:49.024Z,1.30
2023-03-08T01:31:00.887Z,1.20
2023-03-08T01:34:13.880Z,1.60
2023-03-08T01:37:16.914Z,0.90
2023-03-08T01:40:43.874Z,1.45
2023-03-08T01:43:55.895Z,1.30
2023-03-08T01:47:08.951Z,1.40
2023-03-08T01:50:32.982Z,1.40
2023-03-08T01:53:56.932Z,1.15
2023-03-08T01:57:10.913Z,1.10
2023-03-08T02:00:35.929Z,1.53
2023-03-08T02:03:47.957Z,1.57
2023-03-08T02:06:59.928Z,1.23
2023-03-08T02:10:12.929Z,1.27
2023-03-08T02:13:38.043Z,1.50
2023-03-08T02:16:50.955Z,1.87
2023-03-08T02:20:04.024Z,1.50
2023-03-08T02:23:33.997Z,1.20
2023-03-08T02:26:58.988Z,1.60
2023-03-08T02:29:59.031Z,1.80
2023-03-08T02:33:11.061Z,1.30
2023-03-08T02:36:23.014Z,1.80
2023-03-08T02:39:48.126Z,1.80
2023-03-08T02:42:48.078Z,1.45
2023-03-08T02:46:12.077Z,1.60
2023-03-08T02:49:24.084Z,2.17
2023-03-08T02:52:48.248Z,1.90
2023-03-08T02:56:02.114Z,2.00
2023-03-08T02:59:15.190Z,1.60
2023-03-08T03:02:27.194Z,2.00
2023-03-08T03:05:51.126Z,2.43
2023-03-08T03:09:03.091Z,2.30
2023-03-08T03:12:30.210Z,2.10
2023-03-08T03:15:58.226Z,2.35
2023-03-08T03:19:22.126Z,2.10
2023-03-08T03:22:22.343Z,2.27
2023-03-08T03:25:34.209Z,2.50
2023-03-08T03:29:00.183Z,2.17
2023-03-08T03:32:13.242Z,2.30
2023-03-08T03:35:29.172Z,2.80
2023-03-08T03:38:53.305Z,2.47
2023-03-08T03:42:05.206Z,2.07
2023-03-08T03:45:32.325Z,2.27
2023-03-08T03:48:56.257Z,2.40
2023-03-08T03:52:09.342Z,2.27
2023-03-08T03:55:22.293Z,2.15
2023-03-08T03:58:35.284Z,2.30
2023-03-08T04:02:01.353Z,2.23
2023-03-08T04:05:14.333Z,2.50
2023-03-08T04:08:38.332Z,2.30
2023-03-08T04:12:03.384Z,2.60
2023-03-08T04:15:15.395Z,2.30
2023-03-08T04:18:41.403Z,2.47
2023-03-08T04:22:05.340Z,2.70
2023-03-08T04:25:18.407Z,2.73
2023-03-08T04:28:33.449Z,2.27
2023-03-08T04:31:58.390Z,2.07
2023-03-08T04:35:24.434Z,2.47
2023-03-08T04:38:36.438Z,2.20
2023-03-08T04:41:48.444Z,2.27
2023-03-08T04:45:13.433Z,2.13
2023-03-08T04:48:28.480Z,2.80
2023-03-08T04:51:53.487Z,2.00
2023-03-08T04:55:05.458Z,2.15
2023-03-08T04:58:18.520Z,2.10
2023-03-08T05:01:42.452Z,2.15
2023-03-08T05:04:54.534Z,2.23
2023-03-08T05:08:21.518Z,2.30
2023-03-08T05:11:46.603Z,1.90
2023-03-08T05:14:58.476Z,2.35
2023-03-08T05:18:22.536Z,2.60
2023-03-08T05:21:46.525Z,2.20
2023-03-08T05:25:12.519Z,2.40
2023-03-08T05:28:24.673Z,2.00
2023-03-08T05:31:36.741Z,2.20
2023-03-08T05:34:48.580Z,2.07
2023-03-08T05:38:00.674Z,2.00
2023-03-08T05:41:26.608Z,2.50
2023-03-08T05:44:38.596Z,2.30
2023-03-08T05:47:50.630Z,2.27
2023-03-08T05:51:17.644Z,2.10
2023-03-08T05:54:29.631Z,1.90
2023-03-08T05:57:56.625Z,2.10
2023-03-08T06:01:11.746Z,2.45
2023-03-08T06:04:23.747Z,2.23
2023-03-08T06:07:36.703Z,2.13
2023-03-08T06:10:48.753Z,2.23
2023-03-08T06:14:17.704Z,2.00
2023-03-08T06:17:29.700Z,2.20
2023-03-08T06:20:41.709Z,2.70
2023-03-08T06:24:06.770Z,2.87
2023-03-08T06:27:18.777Z,2.30
2023-03-08T06:30:45.792Z,2.30
2023-03-08T06:34:00.835Z,2.13
2023-03-08T06:37:15.827Z,2.70
2023-03-08T06:40:28.802Z,3.00
2023-03-08T06:43:52.838Z,3.07
2023-03-08T06:47:18.880Z,2.40
2023-03-08T06:50:31.816Z,2.63
2023-03-08T06:53:55.874Z,2.70
2023-03-08T06:57:07.889Z,2.87
2023-03-08T07:00:07.840Z,2.75
2023-03-08T07:03:33.910Z,2.63
2023-03-08T07:06:34.930Z,2.67
2023-03-08T07:09:59.943Z,3.20
2023-03-08T07:13:14.940Z,3.20
2023-03-08T07:16:38.971Z,3.55
2023-03-08T07:20:05.554Z,3.00
2023-03-08T07:23:17.950Z,2.90
2023-03-08T07:26:30.970Z,2.90
2023-03-08T07:29:42.926Z,2.53
2023-03-08T07:32:55.069Z,3.90
2023-03-08T07:36:20.994Z,4.60
2023-03-08T07:39:21.044Z,5.55
2023-03-08T07:42:33.004Z,5.10
2023-03-08T07:45:57.006Z,4.77
2023-03-08T07:49:08.976Z,6.97
2023-03-08T07:52:23.029Z,4.83
2023-03-08T07:55:35.999Z,5.10
2023-03-08T07:58:36.111Z,7.83
2023-03-08T08:01:48.085Z,6.17
2023-03-08T08:05:04.079Z,5.33
2023-03-08T08:08:18.077Z,6.03
2023-03-08T08:11:42.084Z,6.03
2023-03-08T08:14:42.095Z,6.00
2023-03-08T08:17:54.141Z,7.90
2023-03-08T08:21:06.154Z,8.10
2023-03-08T08:24:35.095Z,5.20
2023-03-08T08:27:50.135Z,7.20
2023-03-08T08:31:20.204Z,6.77
2023-03-08T08:34:32.167Z,6.30
2023-03-08T08:37:57.140Z,6.47
2023-03-08T08:41:11.163Z,7.20
2023-03-08T08:44:23.182Z,8.47
2023-03-08T08:47:23.151Z,6.50
2023-03-08T08:50:39.211Z,6.87
2023-03-08T08:53:51.176Z,7.17
2023-03-08T08:57:17.265Z,7.60
2023-03-08T09:00:20.256Z,6.85
2023-03-08T09:03:32.272Z,6.95
2023-03-08T09:06:44.208Z,6.70
2023-03-08T09:09:57.287Z,7.53
2023-03-08T09:13:12.311Z,7.37
2023-03-08T09:16:42.294Z,7.25
2023-03-08T09:19:54.249Z,11.43
2023-03-08T09:23:06.356Z,7.70
2023-03-08T09:26:21.309Z,8.83
2023-03-08T09:29:46.351Z,8.70
2023-03-08T09:32:46.465Z,8.07
2023-03-08T09:36:10.363Z,9.23
2023-03-08T09:39:10.378Z,7.83
2023-03-08T09:42:39.387Z,7.93
2023-03-08T09:45:53.426Z,9.10
2023-03-08T09:49:17.406Z,8.67
2023-03-08T09:52:29.495Z,10.00
2023-03-08T09:55:53.577Z,9.90
2023-03-08T09:59:05.458Z,9.40
2023-03-08T10:02:31.437Z,9.80
2023-03-08T10:05:56.432Z,8.75
2023-03-08T10:09:08.413Z,10.00
2023-03-08T10:12:35.480Z,9.05
2023-03-08T10:15:50.489Z,9.80
2023-03-08T10:19:16.434Z,9.00
2023-03-08T10:22:29.500Z,8.57
2023-03-08T10:25:56.458Z,8.60
2023-03-08T10:28:56.419Z,8.75
2023-03-08T10:32:09.767Z,10.35
2023-03-08T10:35:26.500Z,10.20
2023-03-08T10:38:51.543Z,9.03
2023-03-08T10:42:06.587Z,10.43
2023-03-08T10:45:35.584Z,9.13
2023-03-08T10:48:35.612Z,8.13
2023-03-08T10:52:01.631Z,9.13
2023-03-08T10:55:24.578Z,8.55
2023-03-08T10:58:53.635Z,9.47
2023-03-08T11:02:12.624Z,8.65
2023-03-08T11:05:41.679Z,9.00
2023-03-08T11:08:55.652Z,13.07
2023-03-08T11:12:20.845Z,9.20
2023-03-08T11:15:37.693Z,9.45
2023-03-08T11:19:06.703Z,10.70
2023-03-08T11:22:18.672Z,10.30
2023-03-08T11:25:47.708Z,11.03
2023-03-08T11:29:05.682Z,12.53
2023-03-08T11:32:30.781Z,13.90
2023-03-08T11:35:50.740Z,12.33
2023-03-08T11:39:16.629Z,12.40
2023-03-08T11:42:30.735Z,11.93
2023-03-08T11:45:54.720Z,12.60
2023-03-08T11:49:19.737Z,11.75
2023-03-08T11:52:45.778Z,10.70
2023-03-08T11:56:01.717Z,10.83
2023-03-08T11:59:30.804Z,10.50
2023-03-08T12:02:42.745Z,10.45
2023-03-08T12:06:11.769Z,11.33
2023-03-08T12:09:18.872Z,10.53
2023-03-08T12:12:43.850Z,11.47
2023-03-08T12:15:57.936Z,10.15
2023-03-08T12:19:24.766Z,10.90
2023-03-08T12:22:38.920Z,10.80
2023-03-08T12:26:02.859Z,10.93
2023-03-08T12:29:15.948Z,9.73
2023-03-08T12:32:41.980Z,9.60
2023-03-08T12:35:54.029Z,10.00
2023-03-08T12:39:18.012Z,11.10
2023-03-08T12:42:37.903Z,9.80
2023-03-08T12:46:02.904Z,9.57
2023-03-08T12:49:16.890Z,9.17
2023-03-08T12:52:48.038Z,8.93
2023-03-08T12:55:48.947Z,8.67
2023-03-08T12:59:12.983Z,8.55
2023-03-08T13:02:24.984Z,8.67
2023-03-08T13:05:54.969Z,8.53
2023-03-08T13:09:07.031Z,8.07
2023-03-08T13:12:38.065Z,7.30
2023-03-08T13:15:51.130Z,6.27
2023-03-08T13:19:15.249Z,6.10
2023-03-08T13:22:30.109Z,7.37
2023-03-08T13:25:57.022Z,6.57
2023-03-08T13:29:09.127Z,6.05
2023-03-08T13:32:35.074Z,4.87
2023-03-08T13:35:47.056Z,5.90
2023-03-08T13:39:20.080Z,5.35
2023-03-08T13:42:33.067Z,4.10
2023-03-08T13:45:46.163Z,4.77
2023-03-08T13:48:58.115Z,3.47
2023-03-08T13:52:22.172Z,4.50
2023-03-08T13:55:39.142Z,4.23
2023-03-08T13:59:03.231Z,3.40
2023-03-08T14:02:15.234Z,3.40
2023-03-08T14:05:42.295Z,3.70
2023-03-08T14:08:54.117Z,4.10
2023-03-08T14:12:20.179Z,3.70
2023-03-08T14:15:32.304Z,3.03
2023-03-08T14:18:56.268Z,2.80
2023-03-08T14:22:12.198Z,3.30
2023-03-08T14:25:45.198Z,3.40
2023-03-08T14:29:02.275Z,3.10
2023-03-08T14:32:27.287Z,3.55
2023-03-08T14:35:40.313Z,3.13
2023-03-08T14:39:07.308Z,3.85
2023-03-08T14:42:19.341Z,3.60
2023-03-08T14:45:45.370Z,3.70
2023-03-08T14:48:57.383Z,3.97
2023-03-08T14:52:10.335Z,3.90
2023-03-08T14:55:10.378Z,3.93
2023-03-08T14:58:34.305Z,4.65
2023-03-08T15:01:50.331Z,4.23
2023-03-08T15:05:02.386Z,4.50
2023-03-08T15:08:14.372Z,4.20
2023-03-08T15:11:38.406Z,3.73
2023-03-08T15:14:38.397Z,3.70
2023-03-08T15:18:03.330Z,4.10
2023-03-08T15:21:15.423Z,3.83
2023-03-08T15:24:40.388Z,3.90
2023-03-08T15:27:40.425Z,4.00
2023-03-08T15:30:52.499Z,4.13
2023-03-08T15:34:06.541Z,4.30
2023-03-08T15:37:19.440Z,3.90
2023-03-08T15:40:32.399Z,4.55
2023-03-08T15:43:56.500Z,3.65
2023-03-08T15:46:56.486Z,4.17
2023-03-08T15:51:44.722Z,3.83
2023-03-08T15:54:57.696Z,4.00
2023-03-08T15:58:12.018Z,4.00
2023-03-08T16:01:22.788Z,3.73
2023-03-08T16:04:34.841Z,4.40
2023-03-08T16:07:48.810Z,4.00
2023-03-08T16:11:01.745Z,4.25
2023-03-08T16:14:16.779Z,3.85
2023-03-08T16:17:40.834Z,5.00
2023-03-08T16:20:40.816Z,4.20
2023-03-08T16:24:06.950Z,4.70
2023-03-08T16:27:18.863Z,4.40
2023-03-08T16:30:43.872Z,4.53
2023-03-08T16:33:55.807Z,4.30
2023-03-08T16:37:19.839Z,4.43
2023-03-08T16:40:35.952Z,4.40
2023-03-08T16:44:00.879Z,4.53
2023-03-08T16:47:12.940Z,4.03
2023-03-08T16:50:38.930Z,4.70
2023-03-08T16:53:50.893Z,4.50
2023-03-08T16:57:19.693Z,4.10
2023-03-08T17:00:31.032Z,4.80
2023-03-08T17:03:45.984Z,5.03
2023-03-08T17:06:45.949Z,4.30
2023-03-08T17:09:58.942Z,4.53
2023-03-08T17:13:12.988Z,4.60
2023-03-08T17:16:37.057Z,4.83
2023-03-08T17:19:49.011Z,5.10
2023-03-08T17:23:15.989Z,4.00
2023-03-08T17:26:31.038Z,4.37
2023-03-08T17:29:58.025Z,4.37
2023-03-08T17:32:58.085Z,4.27
2023-03-08T17:36:22.229Z,4.47
2023-03-08T17:39:34.115Z,4.45
2023-03-08T17:43:00.131Z,5.53
2023-03-08T17:46:22.272Z,5.10
2023-03-08T17:49:36.131Z,5.50
2023-03-08T17:52:36.211Z,4.90
2023-03-08T17:55:48.155Z,5.07
2023-03-08T17:59:00.167Z,5.10
2023-03-08T18:02:26.207Z,6.13
2023-03-08T18:05:50.150Z,5.80
2023-03-08T18:08:50.089Z,5.73
2023-03-08T18:12:14.149Z,5.03
2023-03-08T18:15:14.175Z,5.80
2023-03-08T18:18:39.201Z,5.75
2023-03-08T18:21:51.204Z,5.77
2023-03-08T18:25:03.196Z,5.40
2023-03-08T18:28:06.176Z,5.55
2023-03-08T18:31:31.272Z,5.50
2023-03-08T18:34:45.263Z,5.57
2023-03-08T18:37:57.261Z,5.40
2023-03-08T18:40:57.294Z,6.23
2023-03-08T18:44:21.283Z,6.13
2023-03-08T18:47:21.287Z,6.10
2023-03-08T18:50:47.259Z,6.63
2023-03-08T18:53:47.236Z,5.90
2023-03-08T18:57:02.295Z,5.80
2023-03-08T19:00:02.306Z,6.43
2023-03-08T19:03:26.385Z,5.95
2023-03-08T19:06:39.314Z,5.53
2023-03-08T19:09:51.330Z,5.27
2023-03-08T19:12:51.382Z,6.17
2023-03-08T19:16:07.418Z,4.80
2023-03-08T19:19:22.425Z,6.30
2023-03-08T19:22:47.390Z,5.77
2023-03-08T19:26:04.665Z,5.20
2023-03-08T19:29:30.486Z,5.70
2023-03-08T19:32:30.339Z,4.97
2023-03-08T19:35:42.445Z,5.35
2023-03-08T19:38:56.452Z,5.20
2023-03-08T19:42:21.438Z,7.43
2023-03-08T19:45:22.486Z,6.70
2023-03-08T19:48:34.424Z,5.13
2023-03-08T19:51:34.566Z,5.80
2023-03-08T19:55:03.513Z,6.30
2023-03-08T19:58:03.528Z,5.90
2023-03-08T20:01:27.678Z,5.60
2023-03-08T20:04:39.502Z,5.73
2023-03-08T20:07:39.535Z,5.95
2023-03-08T20:11:04.636Z,5.43
2023-03-08T20:14:04.512Z,6.27
2023-03-08T20:17:31.570Z,6.53
2023-03-08T20:20:43.647Z,6.10
2023-03-08T20:23:56.576Z,6.53
2023-03-08T20:27:13.570Z,6.10
2023-03-08T20:30:40.646Z,5.20
2023-03-08T20:33:40.597Z,5.97
2023-03-08T20:36:53.595Z,6.60
2023-03-08T20:39:53.587Z,5.97
2023-03-08T20:43:19.650Z,5.60
2023-03-08T20:46:31.676Z,5.60
2023-03-08T20:49:43.688Z,5.40
2023-03-08T20:52:43.662Z,4.93
2023-03-08T20:55:56.708Z,5.20
2023-03-08T20:59:10.652Z,4.73
2023-03-08T21:02:34.759Z,5.40
2023-03-08T21:05:34.679Z,4.83
2023-03-08T21:08:46.701Z,4.95
2023-03-08T21:11:47.732Z,5.23
2023-03-08T21:15:22.697Z,4.50
2023-03-08T21:18:22.704Z,5.25
2023-03-08T21:21:46.800Z,4.77
2023-03-08T21:24:35.179Z,4.57
2023-03-08T21:27:59.774Z,4.80
2023-03-08T21:31:13.815Z,5.67
2023-03-08T21:34:37.807Z,5.77
2023-03-08T21:37:37.763Z,5.80
2023-03-08T21:41:01.830Z,5.40
2023-03-08T21:44:01.848Z,4.67
2023-03-08T21:47:27.853Z,4.67
2023-03-08T21:50:30.873Z,5.37
2023-03-08T21:53:55.853Z,4.90
2023-03-08T21:57:07.796Z,4.87
2023-03-08T22:00:20.908Z,4.90
2023-03-08T22:03:47.816Z,4.63
2023-03-08T22:06:47.903Z,4.60
2023-03-08T22:10:00.884Z,4.00
2023-03-08T22:13:00.899Z,4.80
2023-03-08T22:16:26.026Z,4.30
2023-03-08T22:19:39.907Z,5.00
2023-03-08T22:23:07.946Z,4.50
2023-03-08T22:26:08.087Z,4.45
2023-03-08T22:29:20.989Z,4.65
2023-03-08T22:32:20.960Z,4.87
2023-03-08T22:35:47.997Z,4.57
2023-03-08T22:38:59.959Z,4.10
2023-03-08T22:42:12.086Z,3.57
2023-03-08T22:45:12.036Z,4.00
2023-03-08T22:48:25.039Z,4.00
2023-03-08T22:51:38.978Z,3.87
2023-03-08T22:54:52.084Z,4.17
2023-03-08T22:58:04.056Z,3.80
2023-03-08T23:01:16.101Z,4.50
2023-03-08T23:04:28.151Z,4.23
2023-03-08T23:07:57.050Z,4.05
2023-03-08T23:10:57.085Z,4.00
2023-03-08T23:14:10.117Z,4.80
2023-03-08T23:17:10.133Z,4.30
2023-03-08T23:20:24.240Z,4.20
2023-03-08T23:23:38.083Z,3.70
2023-03-08T23:26:51.245Z,3.60
2023-03-08T23:29:53.179Z,4.30
2023-03-08T23:33:05.161Z,3.60
2023-03-08T23:36:05.234Z,3.83
2023-03-08T23:39:32.230Z,4.40
2023-03-08T23:42:32.225Z,4.35
2023-03-08T23:45:44.179Z,4.27
2023-03-08T23:48:44.190Z,4.40
2023-03-08T23:52:08.235Z,4.10
2023-03-08T23:55:21.237Z,4.33
2023-03-08T23:58:34.242Z,5.10
